Time;durP1;ratioP1;P1;durP2;ratioP2;P2;SDS_P1;SDS_P2;PMS_P1;PMS_P2;Temp;Humidity;BMP_temperature;BMP_pressure;BME280_temperature;BME280_humidity;BME280_pressure;Samples;Min_cycle;Max_cycle;Signal;HPM_P1;HPM_P2
2022/02/02 00:02:31;;;;;;;0.00;0.00;;;7.00;99.40;;;;;;6183751;28;20036;-80
2022/02/02 00:05:38;;;;;;;0.00;0.00;;;7.00;99.30;;;;;;6182585;28;20101;-80
2022/02/02 00:08:51;;;;;;;0.00;0.00;;;6.90;99.30;;;;;;6181160;28;20133;-80
2022/02/02 00:15:41;;;;;;;;;;;6.90;99.30;;;;;;6182596;28;20469;-80
2022/02/02 00:18:51;;;;;;;0.00;0.00;;;6.90;99.20;;;;;;6182543;28;20430;-80
2022/02/02 00:21:58;;;;;;;0.00;0.00;;;6.80;99.00;;;;;;6182936;28;20054;-80
2022/02/02 00:25:12;;;;;;;0.00;0.00;;;6.80;99.10;;;;;;6182377;28;20054;-80
2022/02/02 00:28:14;;;;;;;0.00;0.00;;;6.80;99.30;;;;;;6179044;28;20058;-80
2022/02/02 00:31:21;;;;;;;0.00;0.00;;;6.80;99.30;;;;;;6182493;28;20053;-80
2022/02/02 00:34:27;;;;;;;0.00;0.00;;;6.90;99.40;;;;;;6167336;28;20055;-80
2022/02/02 00:37:29;;;;;;;0.00;0.00;;;6.90;99.20;;;;;;6158185;28;20051;-80
2022/02/02 00:40:30;;;;;;;0.00;0.00;;;6.90;99.00;;;;;;6157964;28;20078;-80
2022/02/02 00:43:32;;;;;;;0.10;0.10;;;6.90;98.90;;;;;;6158335;28;20051;-80
2022/02/02 00:46:35;;;;;;;0.00;0.00;;;6.80;98.90;;;;;;6157949;28;20051;-79
2022/02/02 00:49:38;;;;;;;0.00;0.00;;;6.80;98.90;;;;;;6159127;28;20047;-80
2022/02/02 00:52:39;;;;;;;0.00;0.00;;;6.80;99.00;;;;;;6157616;28;20052;-80
2022/02/02 00:55:41;;;;;;;0.00;0.00;;;6.80;99.00;;;;;;6157443;28;20047;-80
2022/02/02 00:58:43;;;;;;;0.00;0.00;;;6.80;99.00;;;;;;6180206;28;20118;-79
2022/02/02 01:01:46;;;;;;;0.00;0.00;;;6.80;98.90;;;;;;6182441;28;20520;-80
2022/02/02 01:04:49;;;;;;;0.00;0.00;;;6.70;98.80;;;;;;6180605;28;20147;-81
2022/02/02 01:08:30;;;;;;;0.00;0.00;;;6.80;98.90;;;;;;6168568;23;20057;-80
2022/02/02 01:11:48;;;;;;;0.00;0.00;;;6.80;99.00;;;;;;6180354;28;20047;-80
2022/02/02 01:18:20;;;;;;;0.00;0.00;;;6.80;98.90;;;;;;6180775;28;20047;-80
2022/02/02 01:21:31;;;;;;;0.00;0.00;;;6.80;98.90;;;;;;6179971;28;20508;-81
2022/02/02 01:27:52;;;;;;;0.00;0.00;;;6.90;99.00;;;;;;6177869;28;20050;-79
2022/02/02 01:30:54;;;;;;;0.00;0.00;;;7.00;99.10;;;;;;6173520;28;20117;-80
2022/02/02 01:33:56;;;;;;;0.00;0.00;;;7.10;99.10;;;;;;6179747;28;20046;-80
2022/02/02 01:36:59;;;;;;;0.08;0.08;;;7.20;98.90;;;;;;6180447;28;20047;-81
2022/02/02 01:40:07;;;;;;;0.00;0.00;;;7.20;98.90;;;;;;6182085;28;20062;-81
2022/02/02 01:43:13;;;;;;;0.30;0.30;;;7.20;98.80;;;;;;6181626;28;20504;-80
2022/02/02 01:46:18;;;;;;;0.00;0.00;;;7.20;98.90;;;;;;6181932;28;20494;-80
2022/02/02 01:53:01;;;;;;;0.00;0.00;;;7.30;98.70;;;;;;6179155;28;20047;-81
2022/02/02 01:56:05;;;;;;;0.00;0.00;;;7.30;98.70;;;;;;6180440;28;20047;-80
2022/02/02 01:59:18;;;;;;;0.00;0.00;;;7.30;98.60;;;;;;6179926;28;20517;-80
2022/02/02 02:02:20;;;;;;;0.00;0.00;;;7.30;98.60;;;;;;6180958;28;20628;-81
2022/02/02 02:05:22;;;;;;;0.00;0.00;;;7.40;98.70;;;;;;6179839;28;20401;-82
2022/02/02 02:08:25;;;;;;;0.00;0.00;;;7.40;98.80;;;;;;6176853;28;20129;-80
2022/02/02 02:11:27;;;;;;;0.28;0.28;;;7.50;98.80;;;;;;6174913;28;20057;-78
2022/02/02 02:14:42;;;;;;;0.00;0.00;;;7.60;98.80;;;;;;6174546;28;20773;-79
2022/02/02 02:17:44;;;;;;;0.00;0.00;;;7.70;98.60;;;;;;6175581;28;20197;-80
2022/02/02 02:20:46;;;;;;;0.00;0.00;;;7.70;98.50;;;;;;6174945;28;20512;-79
2022/02/02 02:23:50;;;;;;;0.00;0.00;;;7.70;98.50;;;;;;6174863;28;20049;-79
2022/02/02 02:26:51;;;;;;;0.00;0.00;;;7.80;98.40;;;;;;6174916;28;20042;-79
2022/02/02 02:30:08;;;;;;;0.00;0.00;;;7.90;98.40;;;;;;6175070;28;20057;-79
2022/02/02 02:36:53;;;;;;;0.00;0.00;;;7.90;98.20;;;;;;6165716;28;20085;-78
2022/02/02 02:40:12;;;;;;;0.00;0.00;;;7.90;98.10;;;;;;6174713;28;20523;-81
2022/02/02 02:56:35;;;;;;;0.00;0.00;;;8.00;98.10;;;;;;6191651;28;20046;-79
2022/02/02 02:59:44;;;;;;;0.00;0.00;;;8.10;98.20;;;;;;6181625;28;20058;-79
2022/02/02 03:49:46;;;;;;;6.97;3.22;;;8.20;97.60;;;;;;6182895;28;20051;-81
2022/02/02 03:56:29;;;;;;;11.52;3.28;;;8.30;97.60;;;;;;6165241;28;20077;-81
2022/02/02 03:59:40;;;;;;;14.00;5.97;;;8.30;97.50;;;;;;6180796;28;20075;-81
2022/02/02 04:02:52;;;;;;;9.68;4.38;;;8.30;97.60;;;;;;6201338;28;20058;-79
2022/02/02 04:06:04;;;;;;;16.55;4.30;;;8.40;97.60;;;;;;6194101;28;20051;-81
2022/02/02 04:09:06;;;;;;;13.57;3.95;;;8.40;97.50;;;;;;6162565;28;20051;-81
2022/02/02 04:12:17;;;;;;;19.33;4.45;;;8.50;97.60;;;;;;6174582;28;20063;-81
2022/02/02 04:51:58;;;;;;;17.10;3.03;;;8.60;96.70;;;;;;6203302;28;20085;-81
2022/02/02 04:55:05;;;;;;;10.10;3.90;;;8.60;96.60;;;;;;6202871;28;20042;-80
2022/02/02 04:58:19;;;;;;;17.13;3.58;;;8.60;96.70;;;;;;6199281;28;20627;-78
2022/02/02 05:08:08;;;;;;;16.10;3.50;;;8.50;96.10;;;;;;6202474;28;20050;-81
2022/02/02 05:11:24;;;;;;;15.40;3.00;;;8.40;96.20;;;;;;6201839;28;20397;-81
2022/02/02 05:21:38;;;;;;;14.93;4.07;;;8.50;96.20;;;;;;6186577;28;20451;-81
2022/02/02 05:42:23;;;;;;;19.70;3.45;;;8.60;96.00;;;;;;6178976;28;20046;-79
2022/02/02 05:48:59;;;;;;;16.67;3.85;;;8.70;95.90;;;;;;6162913;28;20046;-81
2022/02/02 05:52:00;;;;;;;;;;;8.80;95.80;;;;;;6179340;28;20051;-79
2022/02/02 05:55:02;;;;;;;11.77;4.00;;;8.90;95.70;;;;;;6177003;28;20303;-80
2022/02/02 05:58:08;;;;;;;23.60;4.65;;;8.90;95.70;;;;;;6188034;28;20051;-80
2022/02/02 06:01:11;;;;;;;22.52;4.28;;;8.90;95.60;;;;;;6197952;28;20056;-80
2022/02/02 06:04:15;;;;;;;25.63;4.72;;;9.00;95.60;;;;;;6200809;28;20046;-78
2022/02/02 06:07:17;;;;;;;22.70;3.80;;;9.00;95.50;;;;;;6201380;28;20043;-80
2022/02/02 06:10:19;;;;;;;33.45;5.25;;;9.00;95.50;;;;;;6201648;28;20052;-80
2022/02/02 06:13:34;;;;;;;20.30;4.80;;;9.00;95.10;;;;;;6202615;28;20092;-78
2022/02/02 06:16:37;;;;;;;17.58;4.28;;;9.00;95.00;;;;;;6202485;28;20113;-80
2022/02/02 06:19:39;;;;;;;14.18;3.70;;;9.00;95.10;;;;;;6201995;28;20476;-79
2022/02/02 06:22:44;;;;;;;17.85;4.30;;;9.00;94.90;;;;;;6201492;28;20050;-80
2022/02/02 06:25:47;;;;;;;20.73;4.32;;;9.10;95.00;;;;;;6201621;28;20089;-81
2022/02/02 06:28:52;;;;;;;13.10;4.45;;;9.10;95.00;;;;;;6193291;28;20525;-82
2022/02/02 06:31:55;;;;;;;22.83;5.43;;;9.20;95.30;;;;;;6202522;28;20528;-79
2022/02/02 06:35:03;;;;;;;25.58;3.95;;;9.20;95.20;;;;;;6203974;28;20121;-80
2022/02/02 06:38:05;;;;;;;17.40;3.30;;;9.30;95.20;;;;;;6200351;28;20057;-80
2022/02/02 06:41:08;;;;;;;22.73;5.57;;;9.30;95.10;;;;;;6199618;28;20425;-81
2022/02/02 06:44:11;;;;;;;22.60;4.93;;;9.30;95.10;;;;;;6199964;28;20045;-80
2022/02/02 06:47:13;;;;;;;14.60;4.00;;;9.30;94.90;;;;;;6200283;28;20077;-79
2022/02/02 06:50:20;;;;;;;23.95;6.25;;;9.30;95.00;;;;;;6203353;28;20522;-78
2022/02/02 06:53:27;;;;;;;18.90;4.70;;;9.30;95.00;;;;;;6199477;28;20522;-81
2022/02/02 06:56:40;;;;;;;17.13;3.60;;;9.30;95.00;;;;;;6199886;28;20046;-79
2022/02/02 06:59:55;;;;;;;27.75;4.85;;;9.30;95.00;;;;;;6186994;28;20301;-81
2022/02/02 07:03:18;;;;;;;15.88;3.63;;;9.30;95.10;;;;;;6177944;28;20047;-81
2022/02/02 07:06:35;;;;;;;21.25;4.28;;;9.30;95.00;;;;;;6178493;28;20047;-80
2022/02/02 07:09:57;;;;;;;17.35;4.25;;;9.20;94.60;;;;;;6204076;23;20547;-86
2022/02/02 07:13:13;;;;;;;14.90;3.50;;;9.30;94.80;;;;;;6181019;28;20114;-84
2022/02/02 07:16:28;;;;;;;15.00;3.50;;;9.20;94.40;;;;;;6180867;28;20119;-84
2022/02/02 07:19:44;;;;;;;18.98;4.38;;;9.30;94.40;;;;;;6181624;28;20054;-82
2022/02/02 07:26:28;;;;;;;18.55;3.90;;;9.40;94.70;;;;;;6192012;28;20042;-83
2022/02/02 07:29:38;;;;;;;15.30;4.88;;;9.40;94.20;;;;;;6174308;28;20065;-86
2022/02/02 07:32:48;;;;;;;21.00;5.15;;;9.50;94.50;;;;;;6175921;28;20054;-87
2022/02/02 07:36:02;;;;;;;9.55;2.85;;;9.50;94.10;;;;;;6180894;28;20512;-85
2022/02/02 07:39:06;;;;;;;19.60;4.28;;;9.60;94.30;;;;;;6181981;28;20070;-86
2022/02/02 07:42:10;;;;;;;19.05;4.15;;;9.60;94.10;;;;;;6181172;28;20051;-85
2022/02/02 07:45:13;;;;;;;19.90;4.35;;;9.50;94.20;;;;;;6179411;28;20055;-86
2022/02/02 07:48:16;;;;;;;30.15;6.90;;;9.50;94.00;;;;;;6179403;28;20061;-86
2022/02/02 07:51:18;;;;;;;19.00;3.75;;;9.50;94.20;;;;;;6179388;28;20046;-86
2022/02/02 07:54:24;;;;;;;16.35;3.97;;;9.60;94.00;;;;;;6179209;28;20046;-83
2022/02/02 07:57:28;;;;;;;18.63;3.60;;;9.60;94.00;;;;;;6189527;28;20106;-84
2022/02/02 08:00:31;;;;;;;19.63;3.47;;;9.60;93.90;;;;;;6195204;28;20167;-84
2022/02/02 08:03:39;;;;;;;12.63;3.28;;;9.70;93.80;;;;;;6204645;28;20117;-83
2022/02/02 08:06:44;;;;;;;17.30;3.90;;;9.70;93.70;;;;;;6206380;28;20120;-85
2022/02/02 08:09:55;;;;;;;17.75;3.88;;;9.70;93.30;;;;;;6208968;28;20077;-83
2022/02/02 08:13:00;;;;;;;21.75;3.97;;;9.70;93.70;;;;;;6208283;28;20066;-85
2022/02/02 08:16:05;;;;;;;15.57;4.00;;;9.80;93.20;;;;;;6206673;28;20423;-83
2022/02/02 08:19:08;;;;;;;17.17;3.80;;;9.90;93.50;;;;;;6207528;28;20129;-83
2022/02/02 08:22:10;;;;;;;10.52;3.13;;;9.90;93.00;;;;;;6208287;28;20070;-85
2022/02/02 08:25:18;;;;;;;12.52;3.85;;;9.90;92.90;;;;;;6205943;28;20049;-83
2022/02/02 08:28:22;;;;;;;13.90;3.25;;;10.00;92.90;;;;;;6196262;28;20583;-82
2022/02/02 08:31:27;;;;;;;11.73;2.53;;;10.00;92.60;;;;;;6203879;28;20049;-84
2022/02/02 08:34:30;;;;;;;18.48;3.75;;;10.00;92.80;;;;;;6205695;28;20512;-83
2022/02/02 08:37:34;;;;;;;10.70;2.92;;;10.00;92.70;;;;;;6205686;28;20081;-84
2022/02/02 08:40:39;;;;;;;14.15;2.58;;;9.90;92.30;;;;;;6205348;28;20042;-85
2022/02/02 08:43:46;;;;;;;15.57;3.38;;;10.00;92.30;;;;;;6205467;28;20500;-83
2022/02/02 08:46:56;;;;;;;11.95;2.60;;;10.00;92.10;;;;;;6206422;28;20097;-84
2022/02/02 08:50:02;;;;;;;8.88;2.08;;;10.00;92.00;;;;;;6206625;28;20415;-84
2022/02/02 08:53:13;;;;;;;16.05;3.10;;;10.00;91.90;;;;;;6205846;28;20046;-84
2022/02/02 08:56:35;;;;;;;7.75;1.60;;;10.00;91.80;;;;;;6204486;28;20520;-82
2022/02/02 08:59:51;;;;;;;33.60;3.97;;;10.10;91.50;;;;;;6197343;28;20081;-83
2022/02/02 09:05:18;;;;;;;15.05;2.67;;;10.10;91.40;;;;;;6205738;28;20047;-84
2022/02/02 09:06:17;;;;;;;15.98;3.28;;;10.20;91.50;;;;;;6205182;28;20047;-84
2022/02/02 09:09:22;;;;;;;11.60;2.72;;;10.30;91.30;;;;;;6204884;28;20058;-84
2022/02/02 09:25:43;;;;;;;7.68;2.40;;;10.60;90.70;;;;;;6205172;28;20053;-85
2022/02/02 09:32:27;;;;;;;7.88;2.72;;;10.80;90.50;;;;;;6180672;28;20047;-83
2022/02/02 09:35:29;;;;;;;10.88;2.47;;;11.00;90.40;;;;;;6180432;28;20059;-84
2022/02/02 09:38:32;;;;;;;13.00;2.58;;;11.20;89.70;;;;;;6180579;28;20065;-82
2022/02/02 09:41:39;;;;;;;11.73;2.83;;;11.20;89.50;;;;;;6179252;28;20062;-83
2022/02/02 09:44:43;;;;;;;10.25;3.08;;;11.30;89.70;;;;;;6178840;28;20046;-84
2022/02/02 09:47:55;;;;;;;8.90;2.35;;;11.40;89.30;;;;;;6179396;28;20059;-84
2022/02/02 09:51:02;;;;;;;10.70;2.20;;;11.40;87.50;;;;;;6180006;28;20042;-84
2022/02/02 09:54:11;;;;;;;14.50;3.63;;;11.30;87.20;;;;;;6179752;28;20054;-85
2022/02/02 10:00:50;;;;;;;20.63;2.83;;;11.40;88.40;;;;;;6193415;28;20648;-84
2022/02/02 10:04:19;;;;;;;8.20;1.92;;;11.50;88.00;;;;;;6203684;28;20050;-83
2022/02/02 10:07:32;;;;;;;10.35;2.67;;;11.50;88.00;;;;;;6202281;28;20177;-84
2022/02/02 10:14:14;;;;;;;20.70;5.60;;;11.60;87.00;;;;;;6203419;28;20050;-85
2022/02/02 10:17:16;;;;;;;10.20;2.20;;;11.60;86.60;;;;;;6193881;28;20117;-81
2022/02/02 10:20:20;;;;;;;8.95;2.30;;;11.60;86.40;;;;;;6204654;28;20089;-83
2022/02/02 10:23:27;;;;;;;10.18;2.17;;;11.60;85.90;;;;;;6203683;28;20042;-86
2022/02/02 10:26:30;;;;;;;13.02;3.80;;;11.60;86.30;;;;;;6202260;28;20052;-82
2022/02/02 10:29:38;;;;;;;14.68;3.33;;;11.50;87.20;;;;;;6196105;28;20047;-82
2022/02/02 10:32:40;;;;;;;;;;;11.50;86.50;;;;;;6199218;28;20077;-85
2022/02/02 10:35:44;;;;;;;23.00;2.88;;;11.50;87.30;;;;;;6202229;28;20007;-84
2022/02/02 10:39:06;;;;;;;10.48;2.10;;;11.50;86.80;;;;;;6202521;28;20437;-87
2022/02/02 10:42:10;;;;;;;11.07;2.85;;;11.60;86.20;;;;;;6204829;28;20100;-86
2022/02/02 10:45:24;;;;;;;17.90;3.13;;;11.60;86.60;;;;;;6199496;28;20042;-84
2022/02/02 10:48:36;;;;;;;9.55;2.80;;;11.60;85.90;;;;;;6201924;28;20046;-84
2022/02/02 10:51:42;;;;;;;19.35;3.97;;;11.70;86.60;;;;;;6202446;28;20053;-85
2022/02/02 10:55:12;;;;;;;15.95;4.10;;;11.70;85.90;;;;;;6202447;28;20126;-85
2022/02/02 10:58:29;;;;;;;17.38;2.85;;;11.90;86.90;;;;;;6194528;28;20053;-83
2022/02/02 11:01:43;;;;;;;20.23;3.00;;;11.90;85.80;;;;;;6178813;28;20537;-85
2022/02/02 11:08:05;;;;;;;15.90;2.30;;;12.20;82.20;;;;;;6178929;28;20043;-84
2022/02/02 11:11:07;;;;;;;8.98;2.00;;;12.30;80.60;;;;;;6179279;28;20049;-84
2022/02/02 11:14:20;;;;;;;10.93;2.85;;;12.40;81.70;;;;;;6192261;28;20110;-84
2022/02/02 11:17:25;;;;;;;13.52;2.33;;;12.50;80.40;;;;;;6190171;28;20047;-86
2022/02/02 11:20:27;;;;;;;15.48;2.38;;;12.40;80.10;;;;;;6181562;28;20050;-86
2022/02/02 11:23:41;;;;;;;18.02;4.78;;;12.50;80.80;;;;;;6181376;28;20043;-85
2022/02/02 11:26:44;;;;;;;13.95;2.70;;;12.60;79.90;;;;;;6180845;28;20053;-86
2022/02/02 11:29:47;;;;;;;12.73;2.65;;;12.60;79.80;;;;;;6181853;28;20055;-85
2022/02/02 11:32:52;;;;;;;15.98;2.13;;;12.60;80.00;;;;;;6181259;28;20057;-86
2022/02/02 11:35:59;;;;;;;18.80;2.88;;;12.60;79.60;;;;;;6180204;28;20046;-86
2022/02/02 11:39:03;;;;;;;9.02;2.58;;;12.50;79.30;;;;;;6180445;28;20102;-86
2022/02/02 11:42:14;;;;;;;13.15;2.17;;;12.60;79.60;;;;;;6184819;28;20050;-84
2022/02/02 11:45:51;;;;;;;17.15;3.20;;;12.60;79.80;;;;;;6184364;28;20057;-86
2022/02/02 11:49:08;;;;;;;22.52;3.10;;;12.70;79.20;;;;;;6184197;28;20046;-85
2022/02/02 11:52:33;;;;;;;11.50;2.65;;;12.90;80.70;;;;;;6183905;28;20047;-84
2022/02/02 11:55:43;;;;;;;7.18;2.10;;;13.00;79.00;;;;;;6182891;28;20720;-84
2022/02/02 11:58:44;;;;;;;15.88;3.47;;;13.00;77.60;;;;;;6183473;28;20390;-84
2022/02/02 12:01:48;;;;;;;10.45;2.45;;;13.00;77.70;;;;;;6183894;28;20526;-86
2022/02/02 12:05:00;;;;;;;11.65;2.83;;;13.00;78.80;;;;;;6184426;28;20051;-86
2022/02/02 12:08:15;;;;;;;16.83;2.28;;;12.90;78.80;;;;;;6182687;28;20522;-85
2022/02/02 12:11:39;;;;;;;14.23;2.38;;;12.90;79.30;;;;;;6182848;28;20058;-86
2022/02/02 12:45:55;;;;;;;8.15;3.38;;;12.30;81.10;;;;;;6158360;28;20043;-83
2022/02/02 12:49:09;;;;;;;21.92;6.93;;;12.30;81.60;;;;;;6158274;28;20505;-84
2022/02/02 13:02:29;;;;;;;58.42;30.75;;;12.40;81.60;;;;;;6180965;28;20428;-85
2022/02/02 13:05:32;;;;;;;46.67;25.27;;;12.40;81.80;;;;;;6180694;28;20054;-86
2022/02/02 13:08:35;;;;;;;47.80;22.88;;;12.50;81.10;;;;;;6209866;23;20143;-80
2022/02/02 13:11:37;;;;;;;12.70;4.03;;;12.60;81.60;;;;;;6206416;28;20133;-80
2022/02/02 13:14:54;;;;;;;9.93;2.30;;;12.70;81.60;;;;;;6207771;28;20073;-80
2022/02/02 13:18:04;;;;;;;14.20;5.43;;;12.70;81.10;;;;;;6191064;28;20047;-80
2022/02/02 13:21:11;;;;;;;14.85;5.45;;;12.60;81.30;;;;;;6163318;28;20053;-80
2022/02/02 13:24:18;;;;;;;18.45;9.20;;;12.50;81.00;;;;;;6176987;28;20053;-80
2022/02/02 13:27:23;;;;;;;23.88;11.07;;;12.40;82.30;;;;;;6191159;28;20050;-79
2022/02/02 13:30:36;;;;;;;13.15;7.47;;;12.40;83.80;;;;;;6184137;28;20137;-79
2022/02/02 13:33:42;;;;;;;14.50;4.10;;;12.50;82.30;;;;;;6160217;28;20051;-80
2022/02/02 13:37:05;;;;;;;17.70;5.40;;;12.50;80.50;;;;;;6159533;28;20059;-79
2022/02/02 13:43:51;;;;;;;14.65;1.98;;;12.70;80.30;;;;;;6157973;28;20464;-79
2022/02/02 13:47:21;;;;;;;2.30;1.13;;;12.70;79.40;;;;;;6157229;28;20095;-80
2022/02/02 13:50:44;;;;;;;3.83;1.80;;;12.50;80.30;;;;;;6157646;28;20087;-79
2022/02/02 13:54:07;;;;;;;8.07;1.65;;;12.50;80.80;;;;;;6182436;28;20106;-80
2022/02/02 13:57:55;;;;;;;7.70;1.17;;;12.40;81.60;;;;;;6188259;28;20182;-81
2022/02/02 14:01:01;;;;;;;2.17;1.15;;;12.30;82.20;;;;;;6200289;28;20078;-80
2022/02/02 14:04:16;;;;;;;4.20;1.45;;;12.20;83.90;;;;;;6206825;28;20066;-80
2022/02/02 14:07:25;;;;;;;11.30;1.88;;;12.00;84.00;;;;;;6210917;28;20484;-81
2022/02/02 14:10:39;;;;;;;5.80;2.67;;;12.00;85.20;;;;;;6207969;28;20057;-81
2022/02/02 14:33:44;;;;;;;10.23;1.90;;;11.50;88.80;;;;;;6181509;28;20082;-80
2022/02/02 14:36:46;;;;;;;3.35;2.08;;;11.60;89.90;;;;;;6178868;28;20054;-79
2022/02/02 14:39:56;;;;;;;11.27;2.33;;;11.70;90.30;;;;;;6180809;28;20386;-79
2022/02/02 14:43:00;;;;;;;11.60;2.85;;;11.70;90.10;;;;;;6183900;28;20105;-80
2022/02/02 14:46:07;;;;;;;9.18;2.60;;;11.80;89.70;;;;;;6182764;28;20057;-79
2022/02/02 14:49:13;;;;;;;7.82;2.35;;;11.60;89.40;;;;;;6187366;28;20043;-80
2022/02/02 14:52:25;;;;;;;7.32;1.98;;;11.60;90.00;;;;;;6184790;28;20046;-79
2022/02/02 14:55:56;;;;;;;6.32;3.53;;;11.60;90.00;;;;;;6182960;28;20042;-80
2022/02/02 15:09:12;;;;;;;9.23;1.60;;;11.60;88.40;;;;;;6183173;28;20046;-79
2022/02/02 15:28:59;;;;;;;10.50;2.13;;;11.40;88.90;;;;;;6196054;28;20051;-80
2022/02/02 15:32:01;;;;;;;3.00;1.70;;;11.50;89.00;;;;;;6211113;28;20475;-80
2022/02/02 15:35:05;;;;;;;142.90;70.47;;;11.50;89.50;;;;;;6211200;28;20104;-80
2022/02/02 15:38:15;;;;;;;14.35;10.20;;;11.50;89.00;;;;;;6212463;28;20746;-80
2022/02/02 15:41:23;;;;;;;7.10;4.18;;;11.50;89.60;;;;;;6210420;28;20050;-80
2022/02/02 15:54:46;;;;;;;3.33;1.70;;;11.40;90.50;;;;;;6210921;28;20058;-79
2022/02/02 15:58:12;;;;;;;7.05;3.33;;;11.50;90.30;;;;;;6204266;28;20051;-80
2022/02/02 16:04:42;;;;;;;42.88;16.85;;;11.30;90.40;;;;;;6186979;28;20046;-84
2022/02/02 16:07:48;;;;;;;14.77;6.38;;;11.20;90.50;;;;;;6187392;28;20043;-79
2022/02/02 16:11:01;;;;;;;11.57;6.38;;;11.20;90.30;;;;;;6187813;28;20066;-82
2022/02/02 16:14:06;;;;;;;9.68;3.55;;;11.20;90.50;;;;;;6187557;28;20055;-79
2022/02/02 16:37:09;;;;;;;15.02;8.48;;;11.10;91.10;;;;;;6209610;28;20043;-80
2022/02/02 16:40:18;;;;;;;8.70;3.05;;;11.00;91.30;;;;;;6214894;28;20054;-82
2022/02/02 16:43:22;;;;;;;8.32;4.63;;;10.90;91.30;;;;;;6204128;28;20046;-81
2022/02/02 16:46:24;;;;;;;13.80;10.45;;;10.80;91.50;;;;;;6202898;28;20093;-81
2022/02/02 16:49:25;;;;;;;8.98;3.47;;;10.70;91.70;;;;;;6180119;28;20432;-80
2022/02/02 16:52:30;;;;;;;4.70;2.72;;;10.70;91.70;;;;;;6180621;28;20065;-81
2022/02/02 16:55:40;;;;;;;9.27;3.60;;;10.60;91.90;;;;;;6181076;28;20058;-80
2022/02/02 17:26:44;;;;;;;6.25;1.85;;;10.50;92.70;;;;;;6204011;28;20135;-81
2022/02/02 17:32:30;;;;;;;4.15;2.17;;;10.60;92.40;;;;;;6147536;28;20057;-81
2022/02/02 17:35:46;;;;;;;7.00;2.63;;;10.60;92.80;;;;;;6204147;28;20070;-80
2022/02/02 17:38:54;;;;;;;8.27;2.58;;;10.60;92.70;;;;;;6203094;28;20053;-80
2022/02/02 17:42:24;;;;;;;5.10;2.88;;;10.60;92.40;;;;;;6203920;28;20054;-79
2022/02/02 17:45:37;;;;;;;6.65;2.25;;;10.50;92.50;;;;;;6191914;28;20140;-81
2022/02/02 18:18:54;;;;;;;7.60;4.32;;;10.30;93.50;;;;;;6207225;28;20049;-80
2022/02/02 18:21:56;;;;;;;10.15;3.97;;;10.30;93.50;;;;;;6208112;28;20050;-80
2022/02/02 18:25:05;;;;;;;12.18;4.95;;;10.30;93.70;;;;;;6200944;28;20141;-80
2022/02/02 18:28:13;;;;;;;5.68;3.25;;;10.20;93.80;;;;;;6194598;28;20133;-80
2022/02/02 18:31:30;;;;;;;7.90;3.80;;;10.30;93.90;;;;;;6186428;28;20054;-81
2022/02/02 18:34:41;;;;;;;11.32;3.35;;;10.40;93.90;;;;;;6182128;28;20070;-80
2022/02/02 18:48:00;;;;;;;11.73;3.35;;;10.60;93.50;;;;;;6207634;28;20125;-81
2022/02/02 18:51:25;;;;;;;7.85;4.53;;;10.60;93.50;;;;;;6205874;28;20455;-82
2022/02/02 18:54:38;;;;;;;7.93;4.10;;;10.70;93.60;;;;;;6204626;28;20054;-81
2022/02/02 18:57:51;;;;;;;9.20;3.97;;;10.70;93.40;;;;;;6196607;28;20043;-80
2022/02/02 19:01:08;;;;;;;7.28;3.40;;;10.70;93.30;;;;;;6192107;28;20054;-81
2022/02/02 19:04:45;;;;;;;8.82;4.03;;;10.60;93.30;;;;;;6196840;28;20056;-81
2022/02/02 19:08:02;;;;;;;9.95;3.90;;;10.60;93.40;;;;;;6206701;28;20054;-79
2022/02/02 19:57:26;;;;;;;14.65;7.55;;;10.80;93.60;;;;;;6143506;29;20046;-84
2022/02/02 20:04:08;;;;;;;14.30;8.27;;;10.70;93.70;;;;;;6144215;28;20440;-85
2022/02/02 20:14:26;;;;;;;14.68;7.95;;;10.80;93.80;;;;;;6142931;29;20047;-85
2022/02/02 20:17:28;;;;;;;15.50;6.78;;;10.80;93.80;;;;;;6137216;29;20103;-85
2022/02/02 20:20:35;;;;;;;16.45;8.02;;;10.70;93.60;;;;;;6142410;29;20406;-85
2022/02/02 20:23:42;;;;;;;13.63;7.60;;;10.80;93.60;;;;;;6142618;29;20107;-85
2022/02/02 20:26:48;;;;;;;18.90;8.63;;;10.70;93.70;;;;;;6158867;28;20061;-85
2022/02/02 20:29:50;;;;;;;14.70;6.60;;;10.70;93.90;;;;;;6158911;29;20055;-85
2022/02/02 20:32:52;;;;;;;16.05;7.15;;;10.70;93.60;;;;;;6143792;29;20060;-87
2022/02/02 20:35:55;;;;;;;13.82;7.90;;;10.70;93.80;;;;;;6141717;29;20068;-85
2022/02/02 20:38:57;;;;;;;15.70;7.75;;;10.70;93.80;;;;;;6141335;29;20059;-85
2022/02/02 20:42:02;;;;;;;18.30;8.77;;;10.70;94.10;;;;;;6141230;29;20044;-85
2022/02/02 21:05:26;;;;;;;14.18;7.70;;;10.90;93.90;;;;;;6147940;28;20450;-83
2022/02/02 21:08:46;;;;;;;10.90;6.68;;;10.80;93.70;;;;;;6136375;29;20073;-84
2022/02/02 21:13:39;;;;;;;10.25;6.30;;;10.80;93.80;;;;;;6135780;29;20043;-85
2022/02/02 21:15:19;;;;;;;12.05;5.82;;;10.80;93.70;;;;;;6121100;29;20055;-83
2022/02/02 21:18:30;;;;;;;16.33;6.47;;;10.80;93.80;;;;;;6135328;29;20056;-83
2022/02/02 21:21:38;;;;;;;15.48;6.45;;;10.70;93.80;;;;;;6133522;29;20048;-82
2022/02/02 21:25:04;;;;;;;13.00;7.00;;;10.70;93.90;;;;;;6133738;28;20058;-85
2022/02/02 21:28:08;;;;;;;14.98;7.05;;;10.70;94.10;;;;;;6147223;28;20505;-81
2022/02/02 21:31:11;;;;;;;14.93;7.85;;;10.60;93.90;;;;;;6153747;28;20444;-84
2022/02/02 21:34:12;;;;;;;13.00;6.93;;;10.70;93.80;;;;;;6158862;28;20058;-84
2022/02/02 21:37:14;;;;;;;18.58;7.30;;;10.70;94.00;;;;;;6156699;28;20044;-87
2022/02/02 21:40:20;;;;;;;12.45;6.90;;;10.70;94.00;;;;;;6156941;28;20047;-85
2022/02/02 21:43:23;;;;;;;10.30;6.38;;;10.70;93.80;;;;;;6156967;28;20043;-86
2022/02/02 21:46:25;;;;;;;13.88;7.30;;;10.70;93.90;;;;;;6158488;28;20413;-82
2022/02/02 21:49:29;;;;;;;14.35;7.43;;;10.80;94.10;;;;;;6161003;28;20494;-84
2022/02/02 21:52:32;;;;;;;13.98;7.00;;;10.80;94.00;;;;;;6163309;28;20051;-84
2022/02/02 21:55:36;;;;;;;17.42;7.72;;;10.80;94.10;;;;;;6159775;28;20075;-83
2022/02/02 21:58:37;;;;;;;16.38;7.90;;;10.80;94.10;;;;;;6151536;28;21903;-82
2022/02/02 22:01:39;;;;;;;16.35;7.65;;;10.80;94.20;;;;;;6135874;29;20139;-87
2022/02/02 22:04:41;;;;;;;16.60;8.05;;;10.80;94.20;;;;;;6143887;29;20047;-85
2022/02/02 22:07:43;;;;;;;22.35;8.63;;;10.60;94.20;;;;;;6132324;29;20127;-84
2022/02/02 22:10:48;;;;;;;15.48;7.03;;;10.60;94.40;;;;;;6133739;29;20075;-85
2022/02/02 22:13:58;;;;;;;16.70;8.38;;;10.60;94.40;;;;;;6155756;29;20055;-85
2022/02/02 22:17:03;;;;;;;13.25;7.60;;;10.60;94.40;;;;;;6154922;28;20054;-86
2022/02/02 22:20:09;;;;;;;15.00;7.47;;;10.60;94.50;;;;;;6153862;28;20053;-85
2022/02/02 22:23:11;;;;;;;14.85;7.05;;;10.60;94.60;;;;;;6154372;28;20050;-85
2022/02/02 22:26:17;;;;;;;15.48;7.93;;;10.60;94.60;;;;;;6155101;29;20051;-84
2022/02/02 22:29:19;;;;;;;14.40;7.50;;;10.60;94.50;;;;;;6145722;29;20047;-83
2022/02/02 22:32:20;;;;;;;14.95;7.45;;;10.50;94.70;;;;;;6153796;28;20047;-86
2022/02/02 22:35:22;;;;;;;12.68;8.15;;;10.60;94.70;;;;;;6155173;28;20049;-85
2022/02/02 22:38:25;;;;;;;17.13;7.30;;;10.60;94.60;;;;;;6154926;28;20484;-84
2022/02/02 22:41:28;;;;;;;18.30;7.85;;;10.60;94.70;;;;;;6155480;28;20043;-85
2022/02/02 22:44:30;;;;;;;15.18;7.00;;;10.60;94.50;;;;;;6157160;28;20541;-83
2022/02/02 22:47:33;;;;;;;11.57;6.90;;;10.40;94.50;;;;;;6156690;28;20134;-84
2022/02/02 22:50:35;;;;;;;13.60;6.68;;;10.50;94.60;;;;;;6155839;28;20102;-86
2022/02/02 22:53:37;;;;;;;15.02;6.88;;;10.50;94.70;;;;;;6154177;28;20504;-85
2022/02/02 22:56:40;;;;;;;12.95;6.70;;;10.50;94.60;;;;;;6141290;28;20047;-85
2022/02/02 22:59:45;;;;;;;14.18;6.82;;;10.50;94.70;;;;;;6139035;29;20134;-82
2022/02/02 23:02:53;;;;;;;16.95;6.88;;;10.60;94.80;;;;;;6170673;28;20055;-84
2022/02/02 23:05:58;;;;;;;13.40;6.35;;;10.60;94.70;;;;;;6159124;28;20103;-85
2022/02/02 23:09:02;;;;;;;14.90;6.78;;;10.60;94.60;;;;;;6132994;28;20501;-85
2022/02/02 23:12:06;;;;;;;16.27;7.07;;;10.70;94.40;;;;;;6132249;28;20051;-86
2022/02/02 23:15:12;;;;;;;9.77;5.65;;;10.60;94.40;;;;;;6132440;28;20065;-84
2022/02/02 23:18:17;;;;;;;12.68;6.43;;;10.60;94.40;;;;;;6132618;29;20047;-85
2022/02/02 23:21:22;;;;;;;12.63;6.90;;;10.60;94.40;;;;;;6131797;28;20052;-86
2022/02/02 23:24:28;;;;;;;13.95;6.88;;;10.50;94.40;;;;;;6131495;28;20055;-87
2022/02/02 23:27:33;;;;;;;11.52;6.30;;;10.60;94.40;;;;;;6136830;28;20601;-86
2022/02/02 23:30:35;;;;;;;13.38;7.28;;;10.50;94.40;;;;;;6148259;28;20058;-86
2022/02/02 23:33:39;;;;;;;12.45;6.88;;;10.40;94.50;;;;;;6155099;28;20055;-85
2022/02/02 23:36:42;;;;;;;16.42;7.05;;;10.40;94.60;;;;;;6156762;28;20044;-86
2022/02/02 23:39:44;;;;;;;16.25;7.07;;;10.50;94.60;;;;;;6158561;28;20066;-85
2022/02/02 23:42:47;;;;;;;12.88;6.60;;;10.50;94.50;;;;;;6156474;28;20051;-84
2022/02/02 23:45:52;;;;;;;12.40;6.90;;;10.40;94.40;;;;;;6158544;28;20060;-85
2022/02/02 23:49:03;;;;;;;13.30;6.07;;;10.50;94.60;;;;;;6153330;28;20054;-83
2022/02/02 23:52:06;;;;;;;14.77;6.38;;;10.50;94.60;;;;;;6158587;28;20051;-84